Time;durP1;ratioP1;P1;durP2;ratioP2;P2;SDS_P1;SDS_P2;PMS_P1;PMS_P2;Temp;Humidity;BMP_temperature;BMP_pressure;BME280_temperature;BME280_humidity;BME280_pressure;Samples;Min_cycle;Max_cycle;Signal;HPM_P1;HPM_P2
2022/01/18 00:05:56;;;;;;;19.48;4.10;;;7.00;99.90;;;;;;6749670;87;20201;-75
2022/01/18 00:26:09;;;;;;;26.23;3.95;;;7.00;99.90;;;;;;6767992;87;20255;-75
2022/01/18 00:36:23;;;;;;;17.50;3.70;;;6.90;99.90;;;;;;6755606;87;20275;-76
2022/01/18 00:46:23;;;;;;;21.62;3.65;;;7.00;99.90;;;;;;6754084;87;20259;-75
2022/01/18 00:56:27;;;;;;;23.00;3.78;;;7.00;99.90;;;;;;6753052;87;20230;-75
2022/01/18 01:06:29;;;;;;;18.10;3.75;;;6.90;99.90;;;;;;6751828;87;20210;-75
2022/01/18 01:37:14;;;;;;;16.45;3.47;;;6.90;99.90;;;;;;6753247;87;20168;-75
2022/01/18 01:47:22;;;;;;;16.60;3.30;;;6.90;99.90;;;;;;6754807;87;20610;-75
2022/01/18 01:57:23;;;;;;;13.35;2.90;;;6.80;99.90;;;;;;6756643;87;20188;-75
2022/01/18 02:07:24;;;;;;;15.82;3.12;;;6.80;99.90;;;;;;6751564;87;20219;-75
2022/01/18 02:27:47;;;;;;;21.95;3.37;;;6.80;99.90;;;;;;6756531;87;20208;-75
2022/01/18 02:37:52;;;;;;;15.82;3.08;;;6.70;99.90;;;;;;6750858;87;20686;-75
2022/01/18 02:47:53;;;;;;;18.95;3.12;;;6.80;99.90;;;;;;6757980;87;20247;-75
2022/01/18 02:58:01;;;;;;;24.50;2.87;;;6.80;99.90;;;;;;6754162;87;20825;-75
2022/01/18 03:08:02;;;;;;;18.33;3.35;;;6.80;99.90;;;;;;6754489;87;20970;-75
2022/01/18 03:18:07;;;;;;;21.57;3.40;;;6.80;99.90;;;;;;6751181;87;20230;-75
2022/01/18 03:28:08;;;;;;;19.80;3.08;;;6.80;99.90;;;;;;6750138;87;21159;-75
2022/01/18 03:38:11;;;;;;;17.92;3.10;;;6.70;99.90;;;;;;6748292;87;20344;-75
2022/01/18 03:48:31;;;;;;;20.10;3.60;;;6.70;99.90;;;;;;6750209;87;20294;-75
2022/01/18 03:58:33;;;;;;;19.60;3.60;;;6.60;99.90;;;;;;6749609;87;20608;-75
2022/01/18 04:08:34;;;;;;;22.77;3.60;;;6.70;99.90;;;;;;6749039;87;20225;-75
2022/01/18 04:18:50;;;;;;;16.73;3.15;;;6.60;99.90;;;;;;6751684;87;20339;-75
2022/01/18 04:28:57;;;;;;;23.85;3.83;;;6.50;99.90;;;;;;6749947;87;20214;-75
2022/01/18 04:38:58;;;;;;;21.65;4.10;;;6.50;99.90;;;;;;6748636;87;20198;-75
2022/01/18 04:48:59;;;;;;;17.73;3.85;;;6.60;99.90;;;;;;6717055;76;20181;-76
2022/01/18 04:58:59;;;;;;;23.50;4.43;;;6.60;99.90;;;;;;6676073;88;20195;-76
2022/01/18 05:09:07;;;;;;;18.73;3.50;;;6.60;99.90;;;;;;6662214;89;20325;-75
2022/01/18 05:19:26;;;;;;;17.45;3.97;;;6.70;99.90;;;;;;6678639;89;20237;-78
2022/01/18 05:29:27;;;;;;;18.10;4.25;;;6.70;99.90;;;;;;6664912;89;20205;-76
2022/01/18 05:39:27;;;;;;;20.02;4.22;;;6.60;99.90;;;;;;6660411;88;20216;-78
2022/01/18 05:49:28;;;;;;;19.50;3.90;;;6.70;99.90;;;;;;6665155;89;20655;-78
2022/01/18 05:59:35;;;;;;;15.60;4.03;;;6.70;99.90;;;;;;6663560;89;20306;-78
2022/01/18 06:09:36;;;;;;;16.77;3.83;;;6.70;99.90;;;;;;6663030;89;20199;-77
2022/01/18 06:19:37;;;;;;;20.08;4.10;;;6.60;99.90;;;;;;6663602;89;20272;-77
2022/01/18 06:29:37;;;;;;;23.92;4.57;;;6.70;99.90;;;;;;6662423;88;20184;-75
2022/01/18 06:39:38;;;;;;;25.02;4.62;;;6.60;99.90;;;;;;6663298;88;20324;-77
2022/01/18 06:49:39;;;;;;;26.25;4.80;;;6.60;99.90;;;;;;6659322;89;20195;-77
2022/01/18 06:59:39;;;;;;;23.40;5.20;;;6.60;99.90;;;;;;6661955;89;20309;-76
2022/01/18 07:09:40;;;;;;;21.87;6.43;;;6.60;99.90;;;;;;6662963;89;20200;-78
2022/01/18 07:19:40;;;;;;;24.52;7.00;;;6.50;99.90;;;;;;6660406;88;20200;-77
2022/01/18 07:29:43;;;;;;;27.20;7.35;;;6.60;99.90;;;;;;6657142;88;20317;-76
2022/01/18 07:39:43;;;;;;;33.08;7.90;;;6.70;99.90;;;;;;6660423;88;20286;-77
2022/01/18 07:49:45;;;;;;;30.20;8.07;;;6.60;99.90;;;;;;6655705;89;20574;-75
2022/01/18 07:59:46;;;;;;;32.33;9.10;;;6.60;99.90;;;;;;6659987;88;20665;-76
2022/01/18 08:09:47;;;;;;;25.65;7.78;;;6.60;99.90;;;;;;6655760;89;20309;-75
2022/01/18 08:19:47;;;;;;;24.45;7.45;;;6.60;99.90;;;;;;6664714;88;20201;-75
2022/01/18 08:29:48;;;;;;;31.15;8.80;;;6.80;99.90;;;;;;6668970;88;20230;-75
2022/01/18 08:39:49;;;;;;;26.67;8.40;;;6.80;99.90;;;;;;6663164;89;20201;-75
2022/01/18 08:49:51;;;;;;;30.45;9.02;;;6.90;99.90;;;;;;6661570;89;20505;-77
2022/01/18 08:59:53;;;;;;;26.65;8.20;;;6.80;99.90;;;;;;6662691;88;20191;-75
2022/01/18 09:10:05;;;;;;;26.02;7.50;;;6.90;99.90;;;;;;6659924;89;20701;-75
2022/01/18 09:20:08;;;;;;;21.20;7.37;;;7.10;99.90;;;;;;6665645;89;20191;-75
2022/01/18 09:30:10;;;;;;;33.90;8.98;;;7.20;99.90;;;;;;6677202;89;20196;-75
2022/01/18 09:40:14;;;;;;;29.60;7.53;;;7.40;99.90;;;;;;6663952;89;20180;-75
2022/01/18 09:50:18;;;;;;;26.83;7.37;;;7.60;99.90;;;;;;6663961;89;20227;-76
2022/01/18 10:00:20;;;;;;;30.12;7.57;;;7.60;99.90;;;;;;6664599;88;20249;-75
2022/01/18 10:10:37;;;;;;;30.50;8.77;;;7.50;99.90;;;;;;6662810;89;20188;-76
2022/01/18 10:20:51;;;;;;;31.55;8.10;;;7.50;99.90;;;;;;6663534;88;20200;-76
2022/01/18 10:30:51;;;;;;;23.00;8.60;;;7.60;99.90;;;;;;6660045;89;20704;-75
2022/01/18 10:40:52;;;;;;;25.40;7.50;;;7.60;99.90;;;;;;6663449;89;20309;-75
2022/01/18 11:02:10;;;;;;;24.40;7.85;;;7.60;99.90;;;;;;6693656;88;20208;-79
2022/01/18 11:12:11;;;;;;;28.38;8.27;;;7.70;99.90;;;;;;6674832;89;20192;-79
2022/01/18 11:22:12;;;;;;;26.23;8.23;;;7.90;99.90;;;;;;6674345;89;20687;-79
2022/01/18 11:32:14;;;;;;;27.92;9.13;;;8.00;99.90;;;;;;6672921;89;20231;-79
2022/01/18 11:42:15;;;;;;;29.17;8.48;;;8.20;99.90;;;;;;6674278;89;20246;-79
2022/01/18 11:52:37;;;;;;;27.20;10.75;;;8.50;99.90;;;;;;6674807;89;20342;-79
2022/01/18 12:02:42;;;;;;;33.28;12.20;;;8.70;99.90;;;;;;6675988;89;20212;-79
2022/01/18 12:12:45;;;;;;;31.52;11.55;;;8.90;99.90;;;;;;6677271;89;20281;-79
2022/01/18 12:23:07;;;;;;;31.45;11.43;;;8.90;99.90;;;;;;6686285;89;20217;-78
2022/01/18 12:33:18;;;;;;;25.48;10.32;;;9.30;99.90;;;;;;6669827;89;20208;-78
2022/01/18 12:53:39;;;;;;;27.98;10.52;;;10.20;99.90;;;;;;6674254;89;20600;-79
2022/01/18 13:03:41;;;;;;;18.80;7.90;;;10.50;99.90;;;;;;6673737;89;20289;-79
2022/01/18 13:13:49;;;;;;;19.17;8.00;;;11.90;99.90;;;;;;6673950;89;20292;-78
2022/01/18 13:23:59;;;;;;;21.35;8.63;;;11.90;99.90;;;;;;6672858;89;20167;-80
2022/01/18 13:34:01;;;;;;;25.17;9.23;;;11.40;99.90;;;;;;6672895;89;20196;-79
2022/01/18 13:44:05;;;;;;;22.40;8.88;;;11.00;99.90;;;;;;6673222;89;20746;-78
2022/01/18 13:54:08;;;;;;;24.55;8.27;;;10.80;99.90;;;;;;6671351;89;20264;-77
2022/01/18 14:04:21;;;;;;;26.77;8.82;;;10.60;99.90;;;;;;6671810;89;20197;-77
2022/01/18 14:14:23;;;;;;;23.55;9.10;;;10.20;99.90;;;;;;6670983;89;20423;-77
2022/01/18 14:24:39;;;;;;;24.20;8.70;;;10.10;99.90;;;;;;6675873;89;20210;-78
2022/01/18 14:34:42;;;;;;;17.77;8.70;;;10.40;99.90;;;;;;6671517;89;20194;-78
2022/01/18 14:54:47;;;;;;;19.12;8.50;;;13.00;99.90;;;;;;6674975;89;20208;-78
2022/01/18 15:04:47;;;;;;;16.55;5.18;;;11.40;99.90;;;;;;6674926;89;20690;-80
2022/01/18 15:14:48;;;;;;;9.43;3.70;;;10.30;99.90;;;;;;6675242;89;20171;-78
2022/01/18 15:24:48;;;;;;;10.15;3.42;;;9.70;99.90;;;;;;6675868;89;20521;-80
2022/01/18 15:34:51;;;;;;;10.43;3.10;;;9.40;99.90;;;;;;6674410;89;20184;-78
2022/01/18 15:44:52;;;;;;;14.30;4.00;;;9.20;99.90;;;;;;6674904;89;20554;-78
2022/01/18 15:54:53;;;;;;;11.15;3.10;;;9.10;99.90;;;;;;6674763;89;20237;-78
2022/01/18 16:04:53;;;;;;;9.32;3.37;;;8.90;99.90;;;;;;6689678;89;20917;-78
2022/01/18 16:14:54;;;;;;;10.18;3.70;;;8.70;99.90;;;;;;6672004;89;20351;-78
2022/01/18 16:24:55;;;;;;;9.27;3.67;;;8.60;99.90;;;;;;6671123;89;20315;-79
2022/01/18 16:34:55;;;;;;;8.38;3.05;;;8.60;99.90;;;;;;6676703;89;20197;-79
2022/01/18 16:44:56;;;;;;;10.15;3.62;;;8.40;99.90;;;;;;6688673;77;20562;-77
2022/01/18 16:54:57;;;;;;;6.53;2.80;;;8.20;99.90;;;;;;6750570;88;20201;-78
2022/01/18 17:04:57;;;;;;;5.95;2.30;;;8.20;99.90;;;;;;6744139;88;20185;-77
2022/01/18 17:14:58;;;;;;;5.77;1.90;;;8.10;99.90;;;;;;6741491;88;20186;-79
2022/01/18 17:24:59;;;;;;;6.07;2.28;;;8.10;99.90;;;;;;6740087;88;20505;-80
2022/01/18 17:34:59;;;;;;;7.85;2.35;;;8.10;99.90;;;;;;6746807;88;20778;-77
2022/01/18 17:45:00;;;;;;;5.15;2.40;;;8.00;99.90;;;;;;6745955;87;20213;-77
2022/01/18 17:55:01;;;;;;;7.05;2.12;;;7.90;99.90;;;;;;6755948;88;20179;-79
2022/01/18 18:05:01;;;;;;;5.03;1.85;;;7.90;99.90;;;;;;6754511;88;20273;-79
2022/01/18 18:15:02;;;;;;;6.03;2.50;;;7.90;99.90;;;;;;6753068;88;20207;-78
2022/01/18 18:25:03;;;;;;;5.72;2.10;;;7.90;99.90;;;;;;6754471;88;20166;-80
2022/01/18 18:35:04;;;;;;;7.53;3.15;;;7.90;99.90;;;;;;6746601;88;20212;-79
2022/01/18 18:45:05;;;;;;;8.45;3.22;;;7.80;99.90;;;;;;6737555;88;20205;-79
2022/01/18 18:55:09;;;;;;;7.50;2.78;;;7.80;99.90;;;;;;6747342;88;20189;-78
2022/01/18 19:05:09;;;;;;;7.97;3.28;;;7.80;99.90;;;;;;6740267;88;20205;-78
2022/01/18 19:15:14;;;;;;;14.10;5.03;;;7.70;99.90;;;;;;6736965;88;20224;-76
2022/01/18 19:25:16;;;;;;;7.35;3.60;;;7.60;99.90;;;;;;6738359;88;20286;-79
2022/01/18 19:35:17;;;;;;;7.97;3.70;;;7.40;99.90;;;;;;6742048;88;20204;-80
2022/01/18 19:45:33;;;;;;;7.50;2.70;;;7.20;99.90;;;;;;6742957;88;20238;-79
2022/01/18 19:55:33;;;;;;;6.20;2.85;;;7.00;99.90;;;;;;6745872;88;20210;-80
2022/01/18 20:05:34;;;;;;;5.70;2.50;;;6.80;99.90;;;;;;6739781;88;20747;-79
2022/01/18 20:15:35;;;;;;;7.05;2.35;;;6.70;99.90;;;;;;6743644;88;20192;-79
2022/01/18 20:25:37;;;;;;;5.40;2.10;;;6.50;99.90;;;;;;6743624;88;20218;-80
2022/01/18 20:35:37;;;;;;;2.42;1.70;;;6.40;99.90;;;;;;6740106;88;20605;-79
2022/01/18 20:45:41;;;;;;;4.50;1.90;;;6.10;99.90;;;;;;6747997;88;20337;-79
2022/01/18 20:55:43;;;;;;;3.90;1.98;;;5.80;99.90;;;;;;6730664;88;20688;-79
2022/01/18 21:05:45;;;;;;;5.75;3.40;;;5.70;99.90;;;;;;6744561;88;20196;-79
2022/01/18 21:15:46;;;;;;;11.48;5.18;;;5.50;99.90;;;;;;6760652;88;20179;-79
2022/01/18 21:25:46;;;;;;;10.38;4.50;;;5.10;99.90;;;;;;6749711;88;20197;-79
2022/01/18 21:35:49;;;;;;;10.52;4.32;;;5.10;99.90;;;;;;6742346;88;20913;-78
2022/01/18 21:45:50;;;;;;;7.65;4.30;;;5.00;99.90;;;;;;6752020;87;20213;-79
2022/01/18 21:55:50;;;;;;;7.28;3.62;;;4.90;99.90;;;;;;6757234;88;20652;-79
2022/01/18 22:05:51;;;;;;;8.23;3.90;;;4.80;99.90;;;;;;6740840;88;20733;-79
2022/01/18 22:15:52;;;;;;;8.52;4.28;;;4.60;99.90;;;;;;6747160;88;20330;-80
2022/01/18 22:25:53;;;;;;;9.73;4.53;;;4.40;99.90;;;;;;6740788;88;20181;-79
2022/01/18 22:35:54;;;;;;;8.95;4.50;;;4.10;99.90;;;;;;6737147;88;20306;-79
2022/01/18 22:55:58;;;;;;;9.10;3.92;;;4.10;99.90;;;;;;6723151;88;20217;-78
2022/01/18 23:05:58;;;;;;;10.32;4.22;;;3.90;99.90;;;;;;6721300;88;20232;-75
2022/01/18 23:15:59;;;;;;;9.75;4.28;;;3.70;99.90;;;;;;6716070;88;20661;-77
2022/01/18 23:26:02;;;;;;;9.52;4.40;;;3.40;99.90;;;;;;6719650;88;20197;-76
2022/01/18 23:36:04;;;;;;;11.00;4.85;;;3.20;99.90;;;;;;6719890;88;20240;-76
2022/01/18 23:46:09;;;;;;;8.27;4.50;;;3.30;99.90;;;;;;6719175;88;20193;-76
2022/01/18 23:56:10;;;;;;;8.18;3.58;;;3.00;99.90;;;;;;6719142;88;20988;-75
